ACA82B CYYC-CYVR
Flight info
| Callsign | ACA82B |
|---|---|
| Flight time | N/A |
| Altitude | 36000 |
| Route | BOTAG Q894 BOOTH CANUC6 |
| Aircraft | A320/M-SDE3FGHIRWY/LB1 |
Departure
| Time | 2026-05-01 07:41 |
|---|---|
| Airport | Calgary International Airport (CYYC) |
Arrival
| Time | N/A |
|---|---|
| Airport | Vancouver International Airport (CYVR) |
| Time | Latitude | Longitude | Altitude | Speed | Heading |
|---|---|---|---|---|---|
| 2026-05-01 07:27 | 51.12809 | -114.00871 | 3566 ft | 0 kts | 22° |
| 2026-05-01 07:32 | 51.12802 | -114.00875 | 3558 ft | 4 kts | 22° |
| 2026-05-01 07:33 | 51.12759 | -114.00917 | 3564 ft | 4 kts | 70° |
| 2026-05-01 07:33 | 51.12756 | -114.00952 | 3566 ft | 1 kts | 98° |
| 2026-05-01 07:33 | 51.12757 | -114.00959 | 3566 ft | 0 kts | 98° |
| 2026-05-01 07:35 | 51.12757 | -114.00958 | 3566 ft | 1 kts | 98° |
| 2026-05-01 07:35 | 51.12750 | -114.00867 | 3566 ft | 12 kts | 94° |
| 2026-05-01 07:35 | 51.12745 | -114.00730 | 3566 ft | 13 kts | 94° |
| 2026-05-01 07:36 | 51.12693 | -114.00638 | 3562 ft | 12 kts | 178° |
| 2026-05-01 07:36 | 51.12617 | -114.00569 | 3566 ft | 17 kts | 103° |
| 2026-05-01 07:36 | 51.12614 | -114.00371 | 3566 ft | 19 kts | 89° |
| 2026-05-01 07:36 | 51.12616 | -114.00153 | 3566 ft | 21 kts | 89° |
| 2026-05-01 07:37 | 51.12617 | -113.99722 | 3566 ft | 20 kts | 90° |
| 2026-05-01 07:37 | 51.12616 | -113.99504 | 3566 ft | 17 kts | 104° |
| 2026-05-01 07:37 | 51.12504 | -113.99445 | 3561 ft | 22 kts | 181° |
| 2026-05-01 07:38 | 51.12324 | -113.99445 | 3564 ft | 27 kts | 182° |
| 2026-05-01 07:38 | 51.12130 | -113.99447 | 3563 ft | 28 kts | 180° |
| 2026-05-01 07:38 | 51.11722 | -113.99447 | 3560 ft | 30 kts | 180° |
| 2026-05-01 07:39 | 51.11511 | -113.99447 | 3564 ft | 31 kts | 180° |
| 2026-05-01 07:39 | 51.11299 | -113.99450 | 3567 ft | 30 kts | 180° |
| 2026-05-01 07:39 | 51.11034 | -113.99290 | 3570 ft | 21 kts | 84° |
| 2026-05-01 07:40 | 51.11044 | -113.99070 | 3567 ft | 18 kts | 58° |
| 2026-05-01 07:40 | 51.11151 | -113.99036 | 3566 ft | 0 kts | 1° |
| 2026-05-01 07:40 | 51.11165 | -113.99035 | 3566 ft | 11 kts | 1° |
| 2026-05-01 07:41 | 51.11530 | -113.99032 | 3564 ft | 92 kts | 0° |
| 2026-05-01 07:41 | 51.12397 | -113.99031 | 3566 ft | 154 kts | 360° |
| 2026-05-01 07:41 | 51.14827 | -113.99092 | 4853 ft | 168 kts | 356° |
| 2026-05-01 07:42 | 51.16009 | -113.99115 | 5479 ft | 177 kts | 357° |
| 2026-05-01 07:42 | 51.17317 | -113.99173 | 5794 ft | 199 kts | 354° |
| 2026-05-01 07:42 | 51.18679 | -113.99933 | 6093 ft | 222 kts | 322° |
| 2026-05-01 07:42 | 51.19637 | -114.01953 | 6504 ft | 248 kts | 291° |
| 2026-05-01 07:43 | 51.19845 | -114.04787 | 7020 ft | 270 kts | 262° |
| 2026-05-01 07:43 | 51.19457 | -114.06733 | 7547 ft | 278 kts | 243° |
| 2026-05-01 07:43 | 51.16549 | -114.10896 | 9360 ft | 289 kts | 221° |
| 2026-05-01 07:44 | 51.14739 | -114.16607 | 10261 ft | 306 kts | 258° |
| 2026-05-01 07:44 | 51.13882 | -114.23587 | 11479 ft | 331 kts | 260° |
| 2026-05-01 07:45 | 51.13389 | -114.27193 | 12250 ft | 337 kts | 258° |
| 2026-05-01 07:45 | 51.12817 | -114.30800 | 13012 ft | 343 kts | 257° |
| 2026-05-01 07:45 | 51.12164 | -114.34495 | 13779 ft | 350 kts | 256° |
| 2026-05-01 07:45 | 51.11456 | -114.38236 | 14462 ft | 356 kts | 255° |
| 2026-05-01 07:46 | 51.10714 | -114.42035 | 15142 ft | 361 kts | 255° |
| 2026-05-01 07:46 | 51.09957 | -114.45868 | 15843 ft | 365 kts | 255° |
| 2026-05-01 07:46 | 51.08423 | -114.53670 | 17238 ft | 373 kts | 256° |
| 2026-05-01 07:47 | 51.07649 | -114.57626 | 17931 ft | 378 kts | 257° |
| 2026-05-01 07:47 | 51.06875 | -114.61646 | 18616 ft | 381 kts | 258° |
| 2026-05-01 07:47 | 51.06167 | -114.65716 | 19220 ft | 384 kts | 259° |
| 2026-05-01 07:47 | 51.06090 | -114.66186 | 19291 ft | 384 kts | 259° |